sensor_id;sensor_type;location;lat;lon;timestamp;P1;durP1;ratioP1;P2;durP2;ratioP2
6434;SDS011;3250;42.694;23.278;2023-03-17T00:00:42;10.73;;;4.83;;
6434;SDS011;3250;42.694;23.278;2023-03-17T00:03:15;9.87;;;4.67;;
6434;SDS011;3250;42.694;23.278;2023-03-17T00:05:46;9.50;;;5.90;;
6434;SDS011;3250;42.694;23.278;2023-03-17T00:08:18;7.73;;;4.43;;
6434;SDS011;3250;42.694;23.278;2023-03-17T00:10:44;9.02;;;5.40;;
6434;SDS011;3250;42.694;23.278;2023-03-17T00:13:09;10.50;;;5.82;;
6434;SDS011;3250;42.694;23.278;2023-03-17T00:15:36;10.03;;;5.33;;
6434;SDS011;3250;42.694;23.278;2023-03-17T00:18:02;10.65;;;5.85;;
6434;SDS011;3250;42.694;23.278;2023-03-17T00:20:28;6.40;;;4.30;;
6434;SDS011;3250;42.694;23.278;2023-03-17T00:22:58;9.67;;;5.10;;
6434;SDS011;3250;42.694;23.278;2023-03-17T00:25:29;11.47;;;5.10;;
6434;SDS011;3250;42.694;23.278;2023-03-17T00:27:58;10.40;;;5.80;;
6434;SDS011;3250;42.694;23.278;2023-03-17T00:30:25;9.83;;;5.40;;
6434;SDS011;3250;42.694;23.278;2023-03-17T00:32:53;7.23;;;4.53;;
6434;SDS011;3250;42.694;23.278;2023-03-17T00:35:27;12.37;;;5.60;;
6434;SDS011;3250;42.694;23.278;2023-03-17T00:37:55;10.77;;;5.50;;
6434;SDS011;3250;42.694;23.278;2023-03-17T00:42:49;10.57;;;5.37;;
6434;SDS011;3250;42.694;23.278;2023-03-17T00:45:16;9.10;;;5.47;;
6434;SDS011;3250;42.694;23.278;2023-03-17T00:47:43;9.80;;;5.80;;
6434;SDS011;3250;42.694;23.278;2023-03-17T00:50:14;11.03;;;6.33;;
6434;SDS011;3250;42.694;23.278;2023-03-17T00:52:42;12.37;;;6.37;;
6434;SDS011;3250;42.694;23.278;2023-03-17T00:55:08;12.90;;;5.00;;
6434;SDS011;3250;42.694;23.278;2023-03-17T00:57:35;6.75;;;5.00;;
6434;SDS011;3250;42.694;23.278;2023-03-17T01:00:03;10.00;;;5.82;;
6434;SDS011;3250;42.694;23.278;2023-03-17T01:02:29;12.10;;;5.30;;
6434;SDS011;3250;42.694;23.278;2023-03-17T01:04:55;8.13;;;5.10;;
6434;SDS011;3250;42.694;23.278;2023-03-17T01:07:21;5.43;;;4.13;;
6434;SDS011;3250;42.694;23.278;2023-03-17T01:09:48;13.32;;;6.53;;
6434;SDS011;3250;42.694;23.278;2023-03-17T01:12:14;10.65;;;6.18;;
6434;SDS011;3250;42.694;23.278;2023-03-17T01:14:40;11.10;;;6.28;;
6434;SDS011;3250;42.694;23.278;2023-03-17T01:17:13;11.50;;;5.87;;
6434;SDS011;3250;42.694;23.278;2023-03-17T01:19:41;7.70;;;5.13;;
6434;SDS011;3250;42.694;23.278;2023-03-17T01:22:06;5.60;;;4.53;;
6434;SDS011;3250;42.694;23.278;2023-03-17T01:24:33;5.97;;;4.27;;
6434;SDS011;3250;42.694;23.278;2023-03-17T01:26:58;6.93;;;3.90;;
6434;SDS011;3250;42.694;23.278;2023-03-17T01:29:24;5.10;;;4.53;;
6434;SDS011;3250;42.694;23.278;2023-03-17T01:31:49;6.50;;;4.23;;
6434;SDS011;3250;42.694;23.278;2023-03-17T01:34:14;7.23;;;4.17;;
6434;SDS011;3250;42.694;23.278;2023-03-17T01:36:40;7.70;;;4.57;;
6434;SDS011;3250;42.694;23.278;2023-03-17T01:39:05;9.47;;;5.30;;
6434;SDS011;3250;42.694;23.278;2023-03-17T01:41:32;10.37;;;5.50;;
6434;SDS011;3250;42.694;23.278;2023-03-17T01:43:58;8.77;;;5.40;;
6434;SDS011;3250;42.694;23.278;2023-03-17T01:54:08;7.18;;;5.03;;
6434;SDS011;3250;42.694;23.278;2023-03-17T01:56:39;6.03;;;4.17;;
6434;SDS011;3250;42.694;23.278;2023-03-17T01:59:08;6.47;;;4.90;;
6434;SDS011;3250;42.694;23.278;2023-03-17T02:01:40;9.63;;;5.13;;
6434;SDS011;3250;42.694;23.278;2023-03-17T02:04:09;6.10;;;4.97;;
6434;SDS011;3250;42.694;23.278;2023-03-17T02:06:36;6.47;;;5.20;;
6434;SDS011;3250;42.694;23.278;2023-03-17T02:09:02;8.33;;;5.10;;
6434;SDS011;3250;42.694;23.278;2023-03-17T02:11:28;8.53;;;5.13;;
6434;SDS011;3250;42.694;23.278;2023-03-17T02:13:55;6.00;;;4.77;;
6434;SDS011;3250;42.694;23.278;2023-03-17T02:16:21;8.10;;;4.70;;
6434;SDS011;3250;42.694;23.278;2023-03-17T02:18:46;5.53;;;4.30;;
6434;SDS011;3250;42.694;23.278;2023-03-17T02:24:03;8.43;;;5.32;;
6434;SDS011;3250;42.694;23.278;2023-03-17T02:26:33;7.20;;;5.10;;
6434;SDS011;3250;42.694;23.278;2023-03-17T02:29:00;9.55;;;5.70;;
6434;SDS011;3250;42.694;23.278;2023-03-17T02:31:26;6.93;;;4.70;;
6434;SDS011;3250;42.694;23.278;2023-03-17T02:33:52;6.23;;;4.73;;
6434;SDS011;3250;42.694;23.278;2023-03-17T02:36:17;4.63;;;3.90;;
6434;SDS011;3250;42.694;23.278;2023-03-17T02:38:44;10.75;;;5.70;;
6434;SDS011;3250;42.694;23.278;2023-03-17T02:41:09;11.17;;;6.57;;
6434;SDS011;3250;42.694;23.278;2023-03-17T02:43:35;16.37;;;8.40;;
6434;SDS011;3250;42.694;23.278;2023-03-17T02:46:01;15.67;;;7.20;;
6434;SDS011;3250;42.694;23.278;2023-03-17T02:48:27;21.60;;;9.53;;
6434;SDS011;3250;42.694;23.278;2023-03-17T02:50:52;20.20;;;9.83;;
6434;SDS011;3250;42.694;23.278;2023-03-17T02:53:18;14.57;;;7.77;;
6434;SDS011;3250;42.694;23.278;2023-03-17T02:55:43;17.73;;;7.90;;
6434;SDS011;3250;42.694;23.278;2023-03-17T02:58:09;11.57;;;6.93;;
6434;SDS011;3250;42.694;23.278;2023-03-17T03:00:34;13.50;;;7.07;;
6434;SDS011;3250;42.694;23.278;2023-03-17T03:03:00;11.93;;;5.67;;
6434;SDS011;3250;42.694;23.278;2023-03-17T03:05:25;8.17;;;5.73;;
6434;SDS011;3250;42.694;23.278;2023-03-17T03:07:51;8.37;;;5.80;;
6434;SDS011;3250;42.694;23.278;2023-03-17T03:10:16;9.00;;;6.13;;
6434;SDS011;3250;42.694;23.278;2023-03-17T03:12:43;7.73;;;5.77;;
6434;SDS011;3250;42.694;23.278;2023-03-17T03:15:08;13.97;;;6.87;;
6434;SDS011;3250;42.694;23.278;2023-03-17T03:17:34;10.53;;;7.20;;
6434;SDS011;3250;42.694;23.278;2023-03-17T03:20:00;13.40;;;7.63;;
6434;SDS011;3250;42.694;23.278;2023-03-17T03:22:26;11.23;;;6.93;;
6434;SDS011;3250;42.694;23.278;2023-03-17T03:24:51;8.40;;;6.20;;
6434;SDS011;3250;42.694;23.278;2023-03-17T03:27:17;10.53;;;6.73;;
6434;SDS011;3250;42.694;23.278;2023-03-17T03:29:42;8.40;;;5.87;;
6434;SDS011;3250;42.694;23.278;2023-03-17T03:32:08;7.17;;;4.93;;
6434;SDS011;3250;42.694;23.278;2023-03-17T03:34:33;8.33;;;5.63;;
6434;SDS011;3250;42.694;23.278;2023-03-17T03:36:59;6.87;;;4.90;;
6434;SDS011;3250;42.694;23.278;2023-03-17T03:39:24;7.00;;;5.00;;
6434;SDS011;3250;42.694;23.278;2023-03-17T03:41:50;7.33;;;5.10;;
6434;SDS011;3250;42.694;23.278;2023-03-17T03:44:16;7.70;;;5.37;;
6434;SDS011;3250;42.694;23.278;2023-03-17T03:46:41;8.77;;;5.00;;
6434;SDS011;3250;42.694;23.278;2023-03-17T03:49:07;7.57;;;5.23;;
6434;SDS011;3250;42.694;23.278;2023-03-17T03:51:32;7.47;;;5.13;;
6434;SDS011;3250;42.694;23.278;2023-03-17T03:53:58;6.70;;;4.87;;
6434;SDS011;3250;42.694;23.278;2023-03-17T03:56:23;6.50;;;5.07;;
6434;SDS011;3250;42.694;23.278;2023-03-17T03:58:48;12.10;;;8.27;;
6434;SDS011;3250;42.694;23.278;2023-03-17T04:01:15;16.57;;;10.03;;
6434;SDS011;3250;42.694;23.278;2023-03-17T04:03:41;16.52;;;10.02;;
6434;SDS011;3250;42.694;23.278;2023-03-17T04:06:07;12.30;;;8.13;;
6434;SDS011;3250;42.694;23.278;2023-03-17T04:08:32;12.63;;;8.00;;
6434;SDS011;3250;42.694;23.278;2023-03-17T04:10:58;11.10;;;8.07;;
6434;SDS011;3250;42.694;23.278;2023-03-17T04:13:23;11.33;;;7.57;;
6434;SDS011;3250;42.694;23.278;2023-03-17T04:15:48;14.73;;;8.77;;
6434;SDS011;3250;42.694;23.278;2023-03-17T04:18:14;9.93;;;6.93;;
6434;SDS011;3250;42.694;23.278;2023-03-17T04:20:40;7.83;;;5.80;;
6434;SDS011;3250;42.694;23.278;2023-03-17T04:23:06;7.80;;;5.47;;
6434;SDS011;3250;42.694;23.278;2023-03-17T04:25:31;7.50;;;5.80;;
6434;SDS011;3250;42.694;23.278;2023-03-17T04:27:57;9.50;;;5.83;;
6434;SDS011;3250;42.694;23.278;2023-03-17T04:30:22;8.30;;;6.37;;
6434;SDS011;3250;42.694;23.278;2023-03-17T04:32:48;8.53;;;6.23;;
6434;SDS011;3250;42.694;23.278;2023-03-17T04:35:14;12.07;;;8.40;;
6434;SDS011;3250;42.694;23.278;2023-03-17T04:37:42;11.30;;;7.23;;
6434;SDS011;3250;42.694;23.278;2023-03-17T04:40:10;10.30;;;6.90;;
6434;SDS011;3250;42.694;23.278;2023-03-17T04:42:37;9.70;;;6.53;;
6434;SDS011;3250;42.694;23.278;2023-03-17T04:45:03;9.03;;;6.10;;
6434;SDS011;3250;42.694;23.278;2023-03-17T04:47:30;9.38;;;6.90;;
6434;SDS011;3250;42.694;23.278;2023-03-17T04:49:56;10.10;;;6.47;;
6434;SDS011;3250;42.694;23.278;2023-03-17T04:52:22;11.83;;;8.03;;
6434;SDS011;3250;42.694;23.278;2023-03-17T04:54:47;8.47;;;6.70;;
6434;SDS011;3250;42.694;23.278;2023-03-17T04:57:12;11.90;;;8.43;;
6434;SDS011;3250;42.694;23.278;2023-03-17T04:59:38;12.17;;;8.33;;
6434;SDS011;3250;42.694;23.278;2023-03-17T05:02:03;13.63;;;8.83;;
6434;SDS011;3250;42.694;23.278;2023-03-17T05:04:29;12.37;;;8.43;;
6434;SDS011;3250;42.694;23.278;2023-03-17T05:06:54;18.53;;;8.33;;
6434;SDS011;3250;42.694;23.278;2023-03-17T05:09:22;19.73;;;9.07;;
6434;SDS011;3250;42.694;23.278;2023-03-17T05:11:48;16.27;;;8.80;;
6434;SDS011;3250;42.694;23.278;2023-03-17T05:14:13;13.43;;;8.00;;
6434;SDS011;3250;42.694;23.278;2023-03-17T05:16:39;10.97;;;6.97;;
6434;SDS011;3250;42.694;23.278;2023-03-17T05:19:04;7.20;;;5.10;;
6434;SDS011;3250;42.694;23.278;2023-03-17T05:21:30;10.93;;;5.97;;
6434;SDS011;3250;42.694;23.278;2023-03-17T05:23:56;9.73;;;5.27;;
6434;SDS011;3250;42.694;23.278;2023-03-17T05:26:21;9.03;;;5.43;;
6434;SDS011;3250;42.694;23.278;2023-03-17T05:28:47;8.87;;;5.57;;
6434;SDS011;3250;42.694;23.278;2023-03-17T05:31:12;10.73;;;6.00;;
6434;SDS011;3250;42.694;23.278;2023-03-17T05:33:38;9.23;;;5.93;;
6434;SDS011;3250;42.694;23.278;2023-03-17T05:36:03;9.43;;;5.57;;
6434;SDS011;3250;42.694;23.278;2023-03-17T05:38:29;8.83;;;6.10;;
6434;SDS011;3250;42.694;23.278;2023-03-17T05:40:54;10.13;;;6.53;;
6434;SDS011;3250;42.694;23.278;2023-03-17T05:43:20;10.23;;;7.23;;
6434;SDS011;3250;42.694;23.278;2023-03-17T05:45:46;11.00;;;7.33;;
6434;SDS011;3250;42.694;23.278;2023-03-17T05:48:13;10.03;;;7.17;;
6434;SDS011;3250;42.694;23.278;2023-03-17T05:50:39;8.33;;;6.60;;
6434;SDS011;3250;42.694;23.278;2023-03-17T05:53:05;8.83;;;6.67;;
6434;SDS011;3250;42.694;23.278;2023-03-17T05:55:31;12.30;;;7.30;;
6434;SDS011;3250;42.694;23.278;2023-03-17T05:57:56;15.40;;;8.17;;
6434;SDS011;3250;42.694;23.278;2023-03-17T06:00:21;12.40;;;8.87;;
6434;SDS011;3250;42.694;23.278;2023-03-17T06:02:47;12.97;;;8.43;;
6434;SDS011;3250;42.694;23.278;2023-03-17T06:05:13;15.27;;;8.77;;
6434;SDS011;3250;42.694;23.278;2023-03-17T06:07:38;13.60;;;9.03;;
6434;SDS011;3250;42.694;23.278;2023-03-17T06:10:06;13.50;;;8.87;;
6434;SDS011;3250;42.694;23.278;2023-03-17T06:12:31;15.83;;;9.90;;
6434;SDS011;3250;42.694;23.278;2023-03-17T06:14:57;16.90;;;9.73;;
6434;SDS011;3250;42.694;23.278;2023-03-17T06:17:22;20.83;;;10.17;;
6434;SDS011;3250;42.694;23.278;2023-03-17T06:19:48;16.33;;;10.77;;
6434;SDS011;3250;42.694;23.278;2023-03-17T06:22:13;16.50;;;9.83;;
6434;SDS011;3250;42.694;23.278;2023-03-17T06:24:39;14.63;;;8.40;;
6434;SDS011;3250;42.694;23.278;2023-03-17T06:27:04;15.57;;;9.77;;
6434;SDS011;3250;42.694;23.278;2023-03-17T06:29:30;12.93;;;8.27;;
6434;SDS011;3250;42.694;23.278;2023-03-17T06:31:55;16.40;;;9.20;;
6434;SDS011;3250;42.694;23.278;2023-03-17T06:34:21;19.10;;;8.20;;
6434;SDS011;3250;42.694;23.278;2023-03-17T06:36:47;19.77;;;9.73;;
6434;SDS011;3250;42.694;23.278;2023-03-17T06:39:14;18.67;;;9.20;;
6434;SDS011;3250;42.694;23.278;2023-03-17T06:41:40;12.97;;;7.80;;
6434;SDS011;3250;42.694;23.278;2023-03-17T06:44:05;17.40;;;10.40;;
6434;SDS011;3250;42.694;23.278;2023-03-17T06:46:32;17.37;;;9.73;;
6434;SDS011;3250;42.694;23.278;2023-03-17T06:48:58;14.87;;;9.93;;
6434;SDS011;3250;42.694;23.278;2023-03-17T06:51:23;24.90;;;12.13;;
6434;SDS011;3250;42.694;23.278;2023-03-17T06:53:49;22.07;;;12.83;;
6434;SDS011;3250;42.694;23.278;2023-03-17T06:56:15;20.07;;;11.37;;
6434;SDS011;3250;42.694;23.278;2023-03-17T06:58:40;14.73;;;8.17;;
6434;SDS011;3250;42.694;23.278;2023-03-17T07:01:06;19.50;;;9.50;;
6434;SDS011;3250;42.694;23.278;2023-03-17T07:03:32;19.53;;;9.83;;
6434;SDS011;3250;42.694;23.278;2023-03-17T07:05:58;22.87;;;10.97;;
6434;SDS011;3250;42.694;23.278;2023-03-17T07:08:24;16.80;;;9.67;;
6434;SDS011;3250;42.694;23.278;2023-03-17T07:10:52;22.37;;;9.30;;
6434;SDS011;3250;42.694;23.278;2023-03-17T07:13:20;16.67;;;9.27;;
6434;SDS011;3250;42.694;23.278;2023-03-17T07:15:46;15.30;;;8.13;;
6434;SDS011;3250;42.694;23.278;2023-03-17T07:18:12;15.93;;;8.10;;
6434;SDS011;3250;42.694;23.278;2023-03-17T07:20:38;12.13;;;7.33;;
6434;SDS011;3250;42.694;23.278;2023-03-17T07:23:04;11.50;;;7.27;;
6434;SDS011;3250;42.694;23.278;2023-03-17T07:25:30;12.03;;;6.60;;
6434;SDS011;3250;42.694;23.278;2023-03-17T07:27:55;14.33;;;7.93;;
6434;SDS011;3250;42.694;23.278;2023-03-17T07:30:21;20.27;;;8.03;;
6434;SDS011;3250;42.694;23.278;2023-03-17T07:32:46;11.93;;;7.60;;
6434;SDS011;3250;42.694;23.278;2023-03-17T07:35:12;14.20;;;8.53;;
6434;SDS011;3250;42.694;23.278;2023-03-17T07:37:39;14.33;;;8.73;;
6434;SDS011;3250;42.694;23.278;2023-03-17T07:40:05;14.67;;;8.10;;
6434;SDS011;3250;42.694;23.278;2023-03-17T07:42:34;13.87;;;7.93;;
6434;SDS011;3250;42.694;23.278;2023-03-17T07:45:00;9.67;;;6.10;;
6434;SDS011;3250;42.694;23.278;2023-03-17T07:47:26;9.70;;;7.10;;
6434;SDS011;3250;42.694;23.278;2023-03-17T07:49:51;7.80;;;5.30;;
6434;SDS011;3250;42.694;23.278;2023-03-17T07:52:17;10.93;;;6.53;;
6434;SDS011;3250;42.694;23.278;2023-03-17T07:54:43;10.57;;;5.63;;
6434;SDS011;3250;42.694;23.278;2023-03-17T07:57:08;8.43;;;5.07;;
6434;SDS011;3250;42.694;23.278;2023-03-17T07:59:34;5.97;;;4.57;;
6434;SDS011;3250;42.694;23.278;2023-03-17T08:02:00;5.70;;;4.17;;
6434;SDS011;3250;42.694;23.278;2023-03-17T08:04:26;9.90;;;5.73;;
6434;SDS011;3250;42.694;23.278;2023-03-17T08:06:52;12.00;;;6.53;;
6434;SDS011;3250;42.694;23.278;2023-03-17T08:09:18;14.37;;;8.13;;
6434;SDS011;3250;42.694;23.278;2023-03-17T08:11:45;10.70;;;6.00;;
6434;SDS011;3250;42.694;23.278;2023-03-17T08:14:10;9.93;;;5.80;;
6434;SDS011;3250;42.694;23.278;2023-03-17T08:16:37;8.20;;;4.17;;
6434;SDS011;3250;42.694;23.278;2023-03-17T08:19:02;6.10;;;3.63;;
6434;SDS011;3250;42.694;23.278;2023-03-17T08:21:28;7.40;;;3.33;;
6434;SDS011;3250;42.694;23.278;2023-03-17T08:23:55;4.60;;;2.83;;
6434;SDS011;3250;42.694;23.278;2023-03-17T08:26:20;7.30;;;3.90;;
6434;SDS011;3250;42.694;23.278;2023-03-17T08:28:47;4.63;;;3.77;;
6434;SDS011;3250;42.694;23.278;2023-03-17T08:31:14;4.17;;;3.30;;
6434;SDS011;3250;42.694;23.278;2023-03-17T08:33:42;5.93;;;3.53;;
6434;SDS011;3250;42.694;23.278;2023-03-17T08:36:10;5.03;;;3.53;;
6434;SDS011;3250;42.694;23.278;2023-03-17T08:38:37;7.60;;;4.30;;
6434;SDS011;3250;42.694;23.278;2023-03-17T08:41:05;7.70;;;4.57;;
6434;SDS011;3250;42.694;23.278;2023-03-17T08:43:32;3.70;;;2.90;;
6434;SDS011;3250;42.694;23.278;2023-03-17T08:46:04;6.90;;;4.07;;
6434;SDS011;3250;42.694;23.278;2023-03-17T08:48:34;8.60;;;5.63;;
6434;SDS011;3250;42.694;23.278;2023-03-17T08:51:01;6.37;;;4.73;;
6434;SDS011;3250;42.694;23.278;2023-03-17T08:53:28;7.07;;;4.20;;
6434;SDS011;3250;42.694;23.278;2023-03-17T08:55:54;4.73;;;3.43;;
6434;SDS011;3250;42.694;23.278;2023-03-17T08:58:21;5.20;;;3.87;;
6434;SDS011;3250;42.694;23.278;2023-03-17T09:00:46;6.10;;;4.03;;
6434;SDS011;3250;42.694;23.278;2023-03-17T09:03:13;6.60;;;4.13;;
6434;SDS011;3250;42.694;23.278;2023-03-17T09:05:39;6.53;;;4.00;;
6434;SDS011;3250;42.694;23.278;2023-03-17T09:08:06;7.83;;;3.80;;
6434;SDS011;3250;42.694;23.278;2023-03-17T09:10:32;4.77;;;3.77;;
6434;SDS011;3250;42.694;23.278;2023-03-17T09:12:57;4.30;;;3.10;;
6434;SDS011;3250;42.694;23.278;2023-03-17T09:15:27;5.07;;;4.07;;
6434;SDS011;3250;42.694;23.278;2023-03-17T09:17:54;7.50;;;3.80;;
6434;SDS011;3250;42.694;23.278;2023-03-17T09:20:19;3.93;;;3.30;;
6434;SDS011;3250;42.694;23.278;2023-03-17T09:22:45;7.53;;;4.30;;
6434;SDS011;3250;42.694;23.278;2023-03-17T09:25:12;6.53;;;4.00;;
6434;SDS011;3250;42.694;23.278;2023-03-17T09:27:38;6.73;;;3.77;;
6434;SDS011;3250;42.694;23.278;2023-03-17T09:30:04;5.83;;;3.70;;
6434;SDS011;3250;42.694;23.278;2023-03-17T09:32:30;5.03;;;3.60;;
6434;SDS011;3250;42.694;23.278;2023-03-17T09:34:56;4.97;;;3.60;;
6434;SDS011;3250;42.694;23.278;2023-03-17T09:37:21;6.03;;;3.57;;
6434;SDS011;3250;42.694;23.278;2023-03-17T09:39:47;7.73;;;4.07;;
6434;SDS011;3250;42.694;23.278;2023-03-17T09:42:22;5.37;;;3.27;;
6434;SDS011;3250;42.694;23.278;2023-03-17T09:50:38;7.07;;;3.67;;
6434;SDS011;3250;42.694;23.278;2023-03-17T09:53:30;7.53;;;3.33;;
6434;SDS011;3250;42.694;23.278;2023-03-17T09:56:12;5.87;;;3.63;;
6434;SDS011;3250;42.694;23.278;2023-03-17T09:58:41;4.63;;;3.50;;
6434;SDS011;3250;42.694;23.278;2023-03-17T10:01:13;5.17;;;3.13;;
6434;SDS011;3250;42.694;23.278;2023-03-17T10:03:39;5.80;;;4.30;;
6434;SDS011;3250;42.694;23.278;2023-03-17T10:06:16;6.37;;;3.97;;
6434;SDS011;3250;42.694;23.278;2023-03-17T10:08:50;6.10;;;3.83;;
6434;SDS011;3250;42.694;23.278;2023-03-17T10:17:09;5.27;;;3.43;;
6434;SDS011;3250;42.694;23.278;2023-03-17T10:22:46;5.90;;;4.03;;
6434;SDS011;3250;42.694;23.278;2023-03-17T10:25:19;6.37;;;3.53;;
6434;SDS011;3250;42.694;23.278;2023-03-17T10:28:12;4.10;;;3.13;;
6434;SDS011;3250;42.694;23.278;2023-03-17T10:30:40;5.10;;;3.60;;
6434;SDS011;3250;42.694;23.278;2023-03-17T10:33:07;5.37;;;3.20;;
6434;SDS011;3250;42.694;23.278;2023-03-17T10:35:33;5.27;;;3.87;;
6434;SDS011;3250;42.694;23.278;2023-03-17T10:38:00;5.97;;;3.30;;
6434;SDS011;3250;42.694;23.278;2023-03-17T10:40:37;6.47;;;3.07;;
6434;SDS011;3250;42.694;23.278;2023-03-17T10:43:04;5.87;;;3.23;;
6434;SDS011;3250;42.694;23.278;2023-03-17T10:45:34;6.60;;;4.57;;
6434;SDS011;3250;42.694;23.278;2023-03-17T10:48:03;6.87;;;4.20;;
6434;SDS011;3250;42.694;23.278;2023-03-17T10:50:33;7.27;;;4.07;;
6434;SDS011;3250;42.694;23.278;2023-03-17T10:53:17;6.83;;;3.80;;
6434;SDS011;3250;42.694;23.278;2023-03-17T10:55:52;4.43;;;3.13;;
6434;SDS011;3250;42.694;23.278;2023-03-17T10:58:21;8.73;;;3.50;;
6434;SDS011;3250;42.694;23.278;2023-03-17T11:01:02;7.37;;;3.30;;
6434;SDS011;3250;42.694;23.278;2023-03-17T11:03:34;7.67;;;3.63;;
6434;SDS011;3250;42.694;23.278;2023-03-17T11:06:07;5.97;;;3.60;;
6434;SDS011;3250;42.694;23.278;2023-03-17T11:08:55;6.27;;;3.50;;
6434;SDS011;3250;42.694;23.278;2023-03-17T11:11:22;5.57;;;3.03;;
6434;SDS011;3250;42.694;23.278;2023-03-17T11:14:04;4.83;;;3.17;;
6434;SDS011;3250;42.694;23.278;2023-03-17T11:16:53;7.43;;;2.93;;
6434;SDS011;3250;42.694;23.278;2023-03-17T11:19:24;3.73;;;2.63;;
6434;SDS011;3250;42.694;23.278;2023-03-17T11:22:08;4.23;;;2.90;;
6434;SDS011;3250;42.694;23.278;2023-03-17T11:24:46;7.83;;;3.50;;
6434;SDS011;3250;42.694;23.278;2023-03-17T11:27:26;3.70;;;2.90;;
6434;SDS011;3250;42.694;23.278;2023-03-17T11:32:50;4.87;;;3.27;;
6434;SDS011;3250;42.694;23.278;2023-03-17T11:43:39;4.33;;;2.70;;
6434;SDS011;3250;42.694;23.278;2023-03-17T11:46:11;2.70;;;2.03;;
6434;SDS011;3250;42.694;23.278;2023-03-17T11:48:58;3.97;;;2.37;;
6434;SDS011;3250;42.694;23.278;2023-03-17T11:57:08;2.80;;;2.43;;
6434;SDS011;3250;42.694;23.278;2023-03-17T11:59:50;5.40;;;2.40;;
6434;SDS011;3250;42.694;23.278;2023-03-17T12:02:21;2.80;;;2.03;;
6434;SDS011;3250;42.694;23.278;2023-03-17T12:04:57;3.57;;;2.60;;
6434;SDS011;3250;42.694;23.278;2023-03-17T12:10:25;3.40;;;2.30;;
6434;SDS011;3250;42.694;23.278;2023-03-17T12:13:00;4.77;;;2.00;;
6434;SDS011;3250;42.694;23.278;2023-03-17T12:15:30;4.20;;;2.00;;
6434;SDS011;3250;42.694;23.278;2023-03-17T12:18:22;2.40;;;1.73;;
6434;SDS011;3250;42.694;23.278;2023-03-17T12:28:44;3.07;;;1.83;;
6434;SDS011;3250;42.694;23.278;2023-03-17T12:31:18;3.37;;;1.93;;
6434;SDS011;3250;42.694;23.278;2023-03-17T12:33:53;3.80;;;1.90;;
6434;SDS011;3250;42.694;23.278;2023-03-17T12:36:29;2.17;;;1.67;;
6434;SDS011;3250;42.694;23.278;2023-03-17T12:38:57;4.27;;;2.20;;
6434;SDS011;3250;42.694;23.278;2023-03-17T12:41:35;3.17;;;2.03;;
6434;SDS011;3250;42.694;23.278;2023-03-17T12:44:17;2.13;;;1.73;;
6434;SDS011;3250;42.694;23.278;2023-03-17T12:50:02;2.77;;;1.70;;
6434;SDS011;3250;42.694;23.278;2023-03-17T12:52:45;3.10;;;2.03;;
6434;SDS011;3250;42.694;23.278;2023-03-17T12:55:14;2.97;;;1.80;;
6434;SDS011;3250;42.694;23.278;2023-03-17T12:57:43;5.17;;;2.10;;
6434;SDS011;3250;42.694;23.278;2023-03-17T13:00:25;4.83;;;1.50;;
6434;SDS011;3250;42.694;23.278;2023-03-17T13:05:57;2.00;;;1.43;;
6434;SDS011;3250;42.694;23.278;2023-03-17T13:08:36;1.60;;;1.40;;
6434;SDS011;3250;42.694;23.278;2023-03-17T13:11:15;1.97;;;1.37;;
6434;SDS011;3250;42.694;23.278;2023-03-17T13:13:45;5.57;;;2.00;;
6434;SDS011;3250;42.694;23.278;2023-03-17T13:19:14;1.40;;;1.23;;
6434;SDS011;3250;42.694;23.278;2023-03-17T13:27:00;0.90;;;0.90;;
6434;SDS011;3250;42.694;23.278;2023-03-17T13:34:48;1.60;;;1.50;;
6434;SDS011;3250;42.694;23.278;2023-03-17T13:37:40;2.00;;;1.33;;
6434;SDS011;3250;42.694;23.278;2023-03-17T13:45:45;1.93;;;1.37;;
6434;SDS011;3250;42.694;23.278;2023-03-17T13:48:34;3.83;;;2.10;;
6434;SDS011;3250;42.694;23.278;2023-03-17T13:51:07;2.07;;;1.70;;
6434;SDS011;3250;42.694;23.278;2023-03-17T13:53:44;3.43;;;1.70;;
6434;SDS011;3250;42.694;23.278;2023-03-17T13:56:15;83.57;;;7.23;;
6434;SDS011;3250;42.694;23.278;2023-03-17T14:01:24;2.17;;;1.37;;
6434;SDS011;3250;42.694;23.278;2023-03-17T14:03:50;1.83;;;1.60;;
6434;SDS011;3250;42.694;23.278;2023-03-17T14:06:20;2.63;;;1.60;;
6434;SDS011;3250;42.694;23.278;2023-03-17T14:08:56;2.00;;;1.80;;
6434;SDS011;3250;42.694;23.278;2023-03-17T14:11:35;1.87;;;1.60;;
6434;SDS011;3250;42.694;23.278;2023-03-17T14:16:32;2.53;;;2.00;;
6434;SDS011;3250;42.694;23.278;2023-03-17T14:19:10;2.60;;;2.00;;
6434;SDS011;3250;42.694;23.278;2023-03-17T14:21:44;4.63;;;2.03;;
6434;SDS011;3250;42.694;23.278;2023-03-17T14:24:21;1.67;;;1.57;;
6434;SDS011;3250;42.694;23.278;2023-03-17T14:26:49;2.20;;;1.83;;
6434;SDS011;3250;42.694;23.278;2023-03-17T14:29:16;2.13;;;1.80;;
6434;SDS011;3250;42.694;23.278;2023-03-17T14:31:46;2.10;;;1.90;;
6434;SDS011;3250;42.694;23.278;2023-03-17T14:34:14;3.33;;;1.90;;
6434;SDS011;3250;42.694;23.278;2023-03-17T14:36:40;2.47;;;1.83;;
6434;SDS011;3250;42.694;23.278;2023-03-17T14:39:05;4.60;;;2.30;;
6434;SDS011;3250;42.694;23.278;2023-03-17T14:41:33;3.57;;;1.80;;
6434;SDS011;3250;42.694;23.278;2023-03-17T14:44:00;3.47;;;2.00;;
6434;SDS011;3250;42.694;23.278;2023-03-17T14:46:30;3.60;;;1.97;;
6434;SDS011;3250;42.694;23.278;2023-03-17T14:48:59;3.73;;;1.97;;
6434;SDS011;3250;42.694;23.278;2023-03-17T14:51:32;4.20;;;2.37;;
6434;SDS011;3250;42.694;23.278;2023-03-17T14:54:03;3.67;;;2.40;;
6434;SDS011;3250;42.694;23.278;2023-03-17T14:56:37;3.63;;;1.93;;
6434;SDS011;3250;42.694;23.278;2023-03-17T14:59:14;3.43;;;2.43;;
6434;SDS011;3250;42.694;23.278;2023-03-17T15:01:46;2.80;;;2.17;;
6434;SDS011;3250;42.694;23.278;2023-03-17T15:04:16;1.83;;;1.73;;
6434;SDS011;3250;42.694;23.278;2023-03-17T15:06:50;2.27;;;1.90;;
6434;SDS011;3250;42.694;23.278;2023-03-17T15:11:48;2.10;;;1.50;;
6434;SDS011;3250;42.694;23.278;2023-03-17T15:14:18;2.83;;;1.87;;
6434;SDS011;3250;42.694;23.278;2023-03-17T15:16:51;2.87;;;2.00;;
6434;SDS011;3250;42.694;23.278;2023-03-17T15:19:27;5.30;;;2.13;;
6434;SDS011;3250;42.694;23.278;2023-03-17T15:21:58;2.27;;;1.80;;
6434;SDS011;3250;42.694;23.278;2023-03-17T15:24:39;5.77;;;1.90;;
6434;SDS011;3250;42.694;23.278;2023-03-17T15:27:15;2.13;;;1.87;;
6434;SDS011;3250;42.694;23.278;2023-03-17T15:29:42;3.17;;;1.90;;
6434;SDS011;3250;42.694;23.278;2023-03-17T15:32:13;3.10;;;2.00;;
6434;SDS011;3250;42.694;23.278;2023-03-17T15:34:40;3.10;;;1.70;;
6434;SDS011;3250;42.694;23.278;2023-03-17T15:37:12;6.40;;;2.30;;
6434;SDS011;3250;42.694;23.278;2023-03-17T15:39:39;2.83;;;2.05;;
6434;SDS011;3250;42.694;23.278;2023-03-17T15:42:05;2.97;;;2.30;;
6434;SDS011;3250;42.694;23.278;2023-03-17T15:44:32;4.60;;;2.70;;
6434;SDS011;3250;42.694;23.278;2023-03-17T15:46:57;5.07;;;2.53;;
6434;SDS011;3250;42.694;23.278;2023-03-17T15:49:24;3.58;;;2.10;;
6434;SDS011;3250;42.694;23.278;2023-03-17T15:51:49;5.63;;;2.17;;
6434;SDS011;3250;42.694;23.278;2023-03-17T15:54:16;3.20;;;2.67;;
6434;SDS011;3250;42.694;23.278;2023-03-17T15:56:42;5.20;;;3.10;;
6434;SDS011;3250;42.694;23.278;2023-03-17T15:59:07;5.63;;;3.20;;
6434;SDS011;3250;42.694;23.278;2023-03-17T16:01:33;4.32;;;2.70;;
6434;SDS011;3250;42.694;23.278;2023-03-17T16:03:59;4.73;;;3.20;;
6434;SDS011;3250;42.694;23.278;2023-03-17T16:06:26;5.78;;;3.10;;
6434;SDS011;3250;42.694;23.278;2023-03-17T16:08:52;4.67;;;2.97;;
6434;SDS011;3250;42.694;23.278;2023-03-17T16:11:18;5.67;;;3.63;;
6434;SDS011;3250;42.694;23.278;2023-03-17T16:13:51;5.78;;;3.10;;
6434;SDS011;3250;42.694;23.278;2023-03-17T16:19:07;5.90;;;2.80;;
6434;SDS011;3250;42.694;23.278;2023-03-17T16:21:42;4.30;;;2.58;;
6434;SDS011;3250;42.694;23.278;2023-03-17T16:24:12;3.97;;;2.85;;
6434;SDS011;3250;42.694;23.278;2023-03-17T16:26:42;5.95;;;3.03;;
6434;SDS011;3250;42.694;23.278;2023-03-17T16:29:10;4.97;;;2.70;;
6434;SDS011;3250;42.694;23.278;2023-03-17T16:31:38;3.90;;;2.75;;
6434;SDS011;3250;42.694;23.278;2023-03-17T16:34:12;5.37;;;2.90;;
6434;SDS011;3250;42.694;23.278;2023-03-17T16:36:40;3.03;;;2.73;;